createdAt,value
2019-04-07T00:00:49.290Z,100.00
2019-04-07T00:03:19.526Z,100.00
2019-04-07T00:05:49.442Z,100.00
2019-04-07T00:08:19.031Z,100.00
2019-04-07T00:10:50.507Z,100.00
2019-04-07T00:13:20.038Z,100.00
2019-04-07T00:15:49.951Z,100.00
2019-04-07T00:18:19.536Z,100.00
2019-04-07T00:20:50.193Z,100.00
2019-04-07T00:23:20.042Z,100.00
2019-04-07T00:25:49.641Z,100.00
2019-04-07T00:28:19.635Z,100.00
2019-04-07T00:30:51.283Z,100.00
2019-04-07T00:33:20.842Z,100.00
2019-04-07T00:35:50.921Z,100.00
2019-04-07T00:38:20.406Z,100.00
2019-04-07T00:40:50.764Z,100.00
2019-04-07T00:43:20.901Z,100.00
2019-04-07T00:45:51.192Z,100.00
2019-04-07T00:48:21.177Z,100.00
2019-04-07T00:50:52.002Z,100.00
2019-04-07T00:53:22.035Z,100.00
2019-04-07T00:55:51.588Z,100.00
2019-04-07T00:58:21.467Z,100.00
2019-04-07T01:00:51.261Z,100.00
2019-04-07T01:03:20.780Z,100.00
2019-04-07T01:05:50.272Z,100.00
2019-04-07T01:08:19.765Z,100.00
2019-04-07T01:10:49.265Z,100.00
2019-04-07T01:13:18.757Z,100.00
2019-04-07T01:15:48.425Z,100.00
2019-04-07T01:18:18.201Z,100.00
2019-04-07T01:20:48.418Z,100.00
2019-04-07T01:23:18.206Z,100.00
2019-04-07T01:25:47.848Z,100.00
2019-04-07T01:28:17.342Z,100.00
2019-04-07T01:30:46.958Z,100.00
2019-04-07T01:33:16.421Z,100.00
2019-04-07T01:35:49.358Z,100.00
2019-04-07T01:38:17.965Z,100.00
2019-04-07T01:41:01.050Z,100.00
2019-04-07T01:43:38.194Z,100.00
2019-04-07T01:46:09.858Z,100.00
2019-04-07T01:48:43.704Z,100.00
2019-04-07T01:51:14.867Z,100.00
2019-04-07T01:53:49.681Z,100.00
2019-04-07T01:56:21.017Z,100.00
2019-04-07T01:58:59.370Z,100.00
2019-04-07T02:01:31.229Z,100.00
2019-04-07T02:04:02.974Z,100.00
2019-04-07T02:06:39.956Z,100.00
2019-04-07T02:09:29.043Z,100.00
2019-04-07T02:12:10.458Z,100.00
2019-04-07T02:14:41.977Z,100.00
2019-04-07T02:17:14.681Z,100.00
2019-04-07T02:20:01.343Z,100.00
2019-04-07T02:22:48.305Z,100.00
2019-04-07T02:25:19.908Z,100.00
2019-04-07T02:27:51.218Z,100.00
2019-04-07T02:30:26.145Z,100.00
2019-04-07T02:33:06.242Z,100.00
2019-04-07T02:35:37.828Z,100.00
2019-04-07T02:38:18.225Z,100.00
2019-04-07T02:40:53.438Z,100.00
2019-04-07T02:43:25.296Z,100.00
2019-04-07T02:46:05.841Z,100.00
2019-04-07T02:48:46.805Z,100.00
2019-04-07T02:51:20.788Z,100.00
2019-04-07T02:54:09.146Z,100.00
2019-04-07T02:56:56.698Z,100.00
2019-04-07T02:59:27.827Z,100.00
2019-04-07T03:02:05.784Z,100.00
2019-04-07T03:04:37.224Z,100.00
2019-04-07T03:07:11.563Z,100.00
2019-04-07T03:10:00.643Z,100.00
2019-04-07T03:12:33.229Z,100.00
2019-04-07T03:15:07.098Z,100.00
2019-04-07T03:17:54.115Z,100.00
2019-04-07T03:20:29.602Z,100.00
2019-04-07T03:23:16.394Z,100.00
2019-04-07T03:25:53.516Z,100.00
2019-04-07T03:28:42.461Z,100.00
2019-04-07T03:31:17.712Z,100.00
2019-04-07T03:33:59.632Z,100.00
2019-04-07T03:37:12.612Z,100.00
2019-04-07T03:39:20.463Z,100.00
2019-04-07T03:42:01.098Z,100.00
2019-04-07T03:44:42.815Z,100.00
2019-04-07T03:47:16.490Z,100.00
2019-04-07T03:49:47.786Z,100.00
2019-04-07T03:52:25.100Z,100.00
2019-04-07T03:55:01.989Z,100.00
2019-04-07T03:57:50.911Z,100.00
2019-04-07T04:01:02.468Z,100.00
2019-04-07T04:03:34.614Z,100.00
2019-04-07T04:06:09.087Z,100.00
2019-04-07T04:08:43.111Z,100.00
2019-04-07T04:11:18.182Z,100.00
2019-04-07T04:14:02.838Z,100.00
2019-04-07T04:16:34.104Z,100.00
2019-04-07T04:19:05.138Z,100.00
2019-04-07T04:21:34.734Z,100.00
2019-04-07T04:24:04.332Z,100.00
2019-04-07T04:26:34.348Z,100.00
2019-04-07T04:29:04.059Z,100.00
2019-04-07T04:31:33.866Z,100.00
2019-04-07T04:34:03.431Z,100.00
2019-04-07T04:36:33.492Z,100.00
2019-04-07T04:39:03.494Z,100.00
2019-04-07T04:41:34.837Z,100.00
2019-04-07T04:44:04.990Z,100.00
2019-04-07T04:46:34.894Z,100.00
2019-04-07T04:49:04.387Z,100.00
2019-04-07T04:51:37.849Z,100.00
2019-04-07T04:54:05.302Z,100.00
2019-04-07T04:56:34.845Z,100.00
2019-04-07T04:59:04.342Z,100.00
2019-04-07T05:01:34.461Z,100.00
2019-04-07T05:04:04.090Z,100.00
2019-04-07T05:06:33.589Z,100.00
2019-04-07T05:09:05.469Z,100.00
2019-04-07T05:11:35.862Z,100.00
2019-04-07T05:14:06.017Z,100.00
2019-04-07T05:16:35.669Z,100.00
2019-04-07T05:19:05.189Z,100.00
2019-04-07T05:21:35.006Z,100.00
2019-04-07T05:24:04.744Z,100.00
2019-04-07T05:26:34.771Z,100.00
2019-04-07T05:29:04.741Z,100.00
2019-04-07T05:31:34.763Z,100.00
2019-04-07T05:34:04.243Z,100.00
2019-04-07T05:36:33.756Z,100.00
2019-04-07T05:39:05.334Z,100.00
2019-04-07T05:41:34.864Z,100.00
2019-04-07T05:44:04.640Z,100.00
2019-04-07T05:46:38.639Z,100.00
2019-04-07T05:49:05.489Z,100.00
2019-04-07T05:51:34.989Z,100.00
2019-04-07T05:54:04.604Z,100.00
2019-04-07T05:56:34.813Z,100.00
2019-04-07T05:59:04.462Z,100.00
2019-04-07T06:01:34.539Z,100.00
2019-04-07T06:04:04.063Z,100.00
2019-04-07T06:06:34.271Z,100.00
2019-04-07T06:09:06.389Z,100.00
2019-04-07T06:11:36.236Z,100.00
2019-04-07T06:14:05.815Z,100.00
2019-04-07T06:16:35.324Z,100.00
2019-04-07T06:19:07.883Z,100.00
2019-04-07T06:21:36.632Z,100.00
2019-04-07T06:24:06.268Z,100.00
2019-04-07T06:26:36.427Z,100.00
2019-04-07T06:29:06.988Z,100.00
2019-04-07T06:31:36.514Z,100.00
2019-04-07T06:34:10.054Z,100.00
2019-04-07T06:36:38.535Z,100.00
2019-04-07T06:39:09.540Z,100.00
2019-04-07T06:41:39.146Z,100.00
2019-04-07T06:44:13.515Z,100.00
2019-04-07T06:46:41.541Z,100.00
2019-04-07T06:49:21.935Z,100.00
2019-04-07T06:52:02.945Z,100.00
2019-04-07T06:54:50.064Z,100.00
2019-04-07T06:57:26.782Z,100.00
2019-04-07T07:00:12.807Z,100.00
2019-04-07T07:02:45.434Z,100.00
2019-04-07T07:05:35.000Z,100.00
2019-04-07T07:08:12.647Z,100.00
2019-04-07T07:10:50.798Z,100.00
2019-04-07T07:13:32.413Z,100.00
2019-04-07T07:16:09.599Z,100.00
2019-04-07T07:18:43.670Z,100.00
2019-04-07T07:21:31.527Z,100.00
2019-04-07T07:24:01.217Z,100.00
2019-04-07T07:26:35.102Z,100.00
2019-04-07T07:29:02.074Z,98.90
2019-04-07T07:31:31.656Z,92.65
2019-04-07T07:34:01.185Z,100.00
2019-04-07T07:36:30.710Z,100.00
2019-04-07T07:39:02.201Z,98.26
2019-04-07T07:41:31.586Z,100.00
2019-04-07T07:44:03.626Z,100.00
2019-04-07T07:46:32.430Z,99.98
2019-04-07T07:49:02.192Z,93.18
2019-04-07T07:51:31.852Z,73.18
2019-04-07T07:54:02.123Z,61.28
2019-04-07T07:56:31.705Z,57.68
2019-04-07T07:59:01.779Z,56.97
2019-04-07T08:01:32.247Z,78.90
2019-04-07T08:04:02.018Z,85.72
2019-04-07T08:06:31.749Z,92.44
2019-04-07T08:09:11.983Z,88.71
2019-04-07T08:11:34.396Z,67.91
2019-04-07T08:14:03.851Z,46.07
2019-04-07T08:16:33.574Z,43.38
2019-04-07T08:19:03.859Z,40.26
2019-04-07T08:21:33.736Z,42.40
2019-04-07T08:24:03.649Z,38.34
2019-04-07T08:26:33.341Z,40.79
2019-04-07T08:29:05.753Z,42.61
2019-04-07T08:31:34.868Z,48.38
2019-04-07T08:34:04.653Z,57.40
2019-04-07T08:36:34.777Z,63.64
2019-04-07T08:39:18.528Z,67.10
2019-04-07T08:41:40.656Z,71.99
2019-04-07T08:44:09.370Z,57.78
2019-04-07T08:46:41.744Z,62.17
2019-04-07T08:49:10.173Z,55.97
2019-04-07T08:51:40.407Z,68.13
2019-04-07T08:54:09.969Z,74.91
2019-04-07T08:56:39.464Z,79.39
2019-04-07T08:59:12.123Z,62.09
2019-04-07T09:01:40.495Z,53.98
2019-04-07T09:04:10.037Z,51.22
2019-04-07T09:06:39.682Z,49.60
2019-04-07T09:09:09.953Z,46.98
2019-04-07T09:11:41.230Z,57.76
2019-04-07T09:14:10.918Z,66.72
2019-04-07T09:16:58.404Z,57.45
2019-04-07T09:19:30.958Z,48.43
2019-04-07T09:22:10.625Z,43.22
2019-04-07T09:24:41.767Z,44.25
2019-04-07T09:27:17.117Z,47.68
2019-04-07T09:29:58.797Z,56.77
2019-04-07T09:32:46.046Z,51.95
2019-04-07T09:35:33.442Z,58.78
2019-04-07T09:38:08.109Z,60.41
2019-04-07T09:40:55.973Z,64.65
2019-04-07T09:43:43.921Z,58.76
2019-04-07T09:46:31.172Z,66.53
2019-04-07T09:49:17.075Z,66.56
2019-04-07T09:52:00.043Z,75.72
2019-04-07T09:54:31.205Z,76.05
2019-04-07T09:57:05.057Z,73.24
2019-04-07T09:59:52.452Z,63.86
2019-04-07T10:02:30.761Z,62.23
2019-04-07T10:05:03.357Z,52.08
2019-04-07T10:07:34.888Z,50.52
2019-04-07T10:10:14.889Z,57.71
2019-04-07T10:13:02.087Z,50.14
2019-04-07T10:15:31.679Z,48.86
2019-04-07T10:18:08.785Z,52.08
2019-04-07T10:20:52.053Z,59.87
2019-04-07T10:23:40.292Z,56.57
2019-04-07T10:26:16.989Z,65.63
2019-04-07T10:28:57.785Z,60.71
2019-04-07T10:31:31.692Z,61.76
2019-04-07T10:34:19.091Z,68.24
2019-04-07T10:36:51.019Z,60.32
2019-04-07T10:39:38.156Z,63.45
2019-04-07T10:42:25.542Z,56.27
2019-04-07T10:45:00.871Z,59.04
2019-04-07T10:47:46.630Z,47.65
2019-04-07T10:50:24.611Z,41.66
2019-04-07T10:53:02.812Z,40.04
2019-04-07T10:55:38.060Z,42.92
2019-04-07T10:58:15.238Z,42.36
2019-04-07T11:00:49.375Z,47.55
2019-04-07T11:03:30.224Z,48.98
2019-04-07T11:06:17.012Z,54.02
2019-04-07T11:08:49.017Z,52.52
2019-04-07T11:11:36.084Z,64.38
2019-04-07T11:14:17.355Z,58.27
2019-04-07T11:17:04.838Z,65.81
2019-04-07T11:19:36.517Z,74.75
2019-04-07T11:22:23.683Z,72.34
2019-04-07T11:25:09.756Z,79.89
2019-04-07T11:27:50.421Z,71.64
2019-04-07T11:30:27.512Z,57.52
2019-04-07T11:32:57.538Z,50.52
2019-04-07T11:35:32.955Z,53.99
2019-04-07T11:38:13.568Z,44.34
2019-04-07T11:40:50.927Z,41.21
2019-04-07T11:43:31.494Z,40.56
2019-04-07T11:46:03.361Z,41.07
2019-04-07T11:48:35.101Z,38.09
2019-04-07T11:51:09.595Z,37.86
2019-04-07T11:53:56.596Z,36.16
2019-04-07T11:56:28.562Z,37.71
2019-04-07T11:59:09.169Z,39.87
2019-04-07T12:01:41.939Z,37.46
2019-04-07T12:04:22.778Z,41.53
2019-04-07T12:07:11.096Z,44.40
2019-04-07T12:09:57.111Z,46.77
2019-04-07T12:12:31.179Z,44.40
2019-04-07T12:15:02.312Z,41.19
2019-04-07T12:17:49.186Z,44.14
2019-04-07T12:20:36.541Z,36.58
2019-04-07T12:23:15.913Z,34.93
2019-04-07T12:25:46.097Z,38.80
2019-04-07T12:28:19.107Z,40.51
2019-04-07T12:30:59.925Z,41.78
2019-04-07T12:33:44.047Z,42.52
2019-04-07T12:36:15.180Z,42.64
2019-04-07T12:38:45.090Z,41.20
2019-04-07T12:41:23.416Z,40.34
2019-04-07T12:43:57.727Z,37.53
2019-04-07T12:46:30.044Z,42.13
2019-04-07T12:49:06.797Z,47.68
2019-04-07T12:51:47.236Z,42.52
2019-04-07T12:54:34.251Z,39.73
2019-04-07T12:57:21.968Z,38.61
2019-04-07T13:00:03.151Z,38.74
2019-04-07T13:02:53.810Z,39.18
2019-04-07T13:05:39.900Z,37.75
2019-04-07T13:08:11.045Z,42.45
2019-04-07T13:10:46.007Z,46.78
2019-04-07T13:13:31.645Z,51.07
2019-04-07T13:16:01.206Z,43.03
2019-04-07T13:18:48.552Z,45.64
2019-04-07T13:21:24.845Z,44.59
2019-04-07T13:24:03.631Z,46.71
2019-04-07T13:26:50.041Z,45.56
2019-04-07T13:29:30.160Z,43.55
2019-04-07T13:32:18.781Z,42.43
2019-04-07T13:34:49.952Z,46.17
2019-04-07T13:37:36.734Z,47.46
2019-04-07T13:40:13.197Z,44.07
2019-04-07T13:42:56.653Z,42.39
2019-04-07T13:45:44.612Z,42.69
2019-04-07T13:48:29.094Z,46.45
2019-04-07T13:51:00.386Z,48.67
2019-04-07T13:53:34.342Z,47.62
2019-04-07T13:56:12.330Z,47.37
2019-04-07T13:58:44.316Z,51.58
2019-04-07T14:01:24.227Z,51.82
2019-04-07T14:04:12.045Z,56.01
2019-04-07T14:06:45.034Z,55.90
2019-04-07T14:09:32.489Z,58.82
2019-04-07T14:12:14.259Z,62.13
2019-04-07T14:14:45.723Z,71.17
2019-04-07T14:17:18.146Z,70.19
2019-04-07T14:19:49.854Z,62.05
2019-04-07T14:22:23.371Z,62.96
2019-04-07T14:25:07.974Z,66.47
2019-04-07T14:27:47.660Z,70.98
2019-04-07T14:30:19.179Z,66.90
2019-04-07T14:33:02.334Z,65.04
2019-04-07T14:35:39.166Z,63.35
2019-04-07T14:38:11.069Z,70.05
2019-04-07T14:40:45.677Z,74.47
2019-04-07T14:43:17.695Z,75.36
2019-04-07T14:45:54.637Z,76.19
2019-04-07T14:48:33.726Z,75.00
2019-04-07T14:51:05.858Z,73.36
2019-04-07T14:53:53.081Z,69.98
2019-04-07T14:56:40.846Z,70.70
2019-04-07T14:59:13.065Z,75.08
2019-04-07T15:01:44.733Z,75.88
2019-04-07T15:04:14.456Z,75.35
2019-04-07T15:06:45.974Z,71.97
2019-04-07T15:09:22.772Z,72.53
2019-04-07T15:11:53.905Z,65.52
2019-04-07T15:14:23.424Z,60.99
2019-04-07T15:16:53.511Z,58.32
2019-04-07T15:19:23.421Z,60.91
2019-04-07T15:21:54.975Z,66.35
2019-04-07T15:24:24.186Z,65.19
2019-04-07T15:26:54.123Z,72.56
2019-04-07T15:29:24.269Z,76.34
2019-04-07T15:31:54.450Z,82.72
2019-04-07T15:34:24.200Z,79.94
2019-04-07T15:36:53.875Z,83.49
2019-04-07T15:39:25.675Z,84.83
2019-04-07T15:41:55.529Z,85.68
2019-04-07T15:44:25.901Z,86.09
2019-04-07T15:46:57.474Z,86.53
2019-04-07T15:49:28.253Z,81.80
2019-04-07T15:51:59.331Z,83.22
2019-04-07T15:54:29.654Z,87.91
2019-04-07T15:57:00.022Z,84.51
2019-04-07T15:59:30.328Z,90.38
2019-04-07T16:02:01.242Z,83.71
2019-04-07T16:04:30.819Z,88.18
2019-04-07T16:07:00.346Z,84.56
2019-04-07T16:09:39.703Z,86.08
2019-04-07T16:12:01.742Z,82.85
2019-04-07T16:14:32.050Z,92.97
2019-04-07T16:17:04.135Z,94.20
2019-04-07T16:19:38.167Z,97.88
2019-04-07T16:22:04.345Z,98.78
2019-04-07T16:24:34.718Z,100.00
2019-04-07T16:27:06.707Z,100.00
2019-04-07T16:29:36.440Z,100.00
2019-04-07T16:32:06.290Z,100.00
2019-04-07T16:34:39.023Z,100.00
2019-04-07T16:37:07.055Z,100.00
2019-04-07T16:39:37.461Z,100.00
2019-04-07T16:42:07.175Z,100.00
2019-04-07T16:44:41.830Z,100.00
2019-04-07T16:47:17.801Z,100.00
2019-04-07T16:49:43.629Z,100.00
2019-04-07T16:52:10.651Z,100.00
2019-04-07T16:54:43.464Z,100.00
2019-04-07T16:57:11.392Z,100.00
2019-04-07T16:59:43.445Z,100.00
2019-04-07T17:02:14.423Z,100.00
2019-04-07T17:04:43.607Z,100.00
2019-04-07T17:07:15.696Z,100.00
2019-04-07T17:09:44.672Z,100.00
2019-04-07T17:12:15.004Z,100.00
2019-04-07T17:14:44.881Z,100.00
2019-04-07T17:17:18.282Z,100.00
2019-04-07T17:19:45.764Z,100.00
2019-04-07T17:22:16.886Z,100.00
2019-04-07T17:24:47.721Z,100.00
2019-04-07T17:27:18.259Z,100.00
2019-04-07T17:29:52.582Z,100.00
2019-04-07T17:32:19.918Z,100.00
2019-04-07T17:34:49.811Z,100.00
2019-04-07T17:37:20.079Z,100.00
2019-04-07T17:39:51.475Z,100.00
2019-04-07T17:42:25.607Z,100.00
2019-04-07T17:44:59.856Z,100.00
2019-04-07T17:47:38.088Z,100.00
2019-04-07T17:50:12.621Z,100.00
2019-04-07T17:52:44.114Z,100.00
2019-04-07T17:55:27.635Z,100.00
2019-04-07T17:58:10.147Z,100.00
2019-04-07T18:00:42.189Z,100.00
2019-04-07T18:03:14.191Z,100.00
2019-04-07T18:06:01.752Z,100.00
2019-04-07T18:08:45.311Z,100.00
2019-04-07T18:11:30.120Z,100.00
2019-04-07T18:14:02.125Z,100.00
2019-04-07T18:16:40.785Z,100.00
2019-04-07T18:19:15.254Z,100.00
2019-04-07T18:21:52.414Z,100.00
2019-04-07T18:24:26.079Z,100.00
2019-04-07T18:26:54.900Z,100.00
2019-04-07T18:29:29.553Z,100.00
2019-04-07T18:32:14.518Z,100.00
2019-04-07T18:34:58.742Z,100.00
2019-04-07T18:37:31.168Z,100.00
2019-04-07T18:40:04.791Z,100.00
2019-04-07T18:42:35.005Z,100.00
2019-04-07T18:45:18.962Z,100.00
2019-04-07T18:47:55.858Z,100.00
2019-04-07T18:50:25.029Z,100.00
2019-04-07T18:53:03.696Z,100.00
2019-04-07T18:55:35.357Z,100.00
2019-04-07T18:58:18.329Z,100.00
2019-04-07T19:00:57.407Z,100.00
2019-04-07T19:03:37.424Z,100.00
2019-04-07T19:06:18.072Z,100.00
2019-04-07T19:08:58.455Z,100.00
2019-04-07T19:11:37.348Z,100.00
2019-04-07T19:14:31.579Z,100.00
2019-04-07T19:16:50.833Z,100.00
2019-04-07T19:19:30.473Z,100.00
2019-04-07T19:22:10.992Z,100.00
2019-04-07T19:24:46.285Z,100.00
2019-04-07T19:27:21.262Z,100.00
2019-04-07T19:29:55.688Z,100.00
2019-04-07T19:32:27.153Z,100.00
2019-04-07T19:35:13.376Z,100.00
2019-04-07T19:38:00.442Z,100.00
2019-04-07T19:40:34.298Z,100.00
2019-04-07T19:43:12.531Z,100.00
2019-04-07T19:45:55.245Z,100.00
2019-04-07T19:48:42.719Z,100.00
2019-04-07T19:51:30.603Z,100.00
2019-04-07T19:54:02.477Z,100.00
2019-04-07T19:56:37.188Z,100.00
2019-04-07T19:59:10.013Z,100.00
2019-04-07T20:01:44.396Z,100.00
2019-04-07T20:04:18.534Z,100.00
2019-04-07T20:07:00.558Z,100.00
2019-04-07T20:09:45.171Z,100.00
2019-04-07T20:12:16.260Z,100.00
2019-04-07T20:15:08.780Z,100.00
2019-04-07T20:17:40.930Z,100.00
2019-04-07T20:20:24.392Z,100.00
2019-04-07T20:23:06.318Z,100.00
2019-04-07T20:25:41.059Z,100.00
2019-04-07T20:28:15.301Z,100.00
2019-04-07T20:30:51.730Z,100.00
2019-04-07T20:33:31.412Z,100.00
2019-04-07T20:36:00.010Z,100.00
2019-04-07T20:38:46.988Z,100.00
2019-04-07T20:41:18.158Z,100.00
2019-04-07T20:43:51.285Z,100.00
2019-04-07T20:46:24.018Z,100.00
2019-04-07T20:48:53.965Z,100.00
2019-04-07T20:51:34.066Z,100.00
2019-04-07T20:54:05.597Z,100.00
2019-04-07T20:56:45.879Z,100.00
2019-04-07T20:59:31.438Z,100.00
2019-04-07T21:02:07.100Z,100.00
2019-04-07T21:04:36.344Z,100.00
2019-04-07T21:07:05.645Z,100.00
2019-04-07T21:09:42.509Z,100.00
2019-04-07T21:12:32.274Z,100.00
2019-04-07T21:15:16.151Z,100.00
2019-04-07T21:17:36.369Z,100.00
2019-04-07T21:20:24.237Z,100.00
2019-04-07T21:23:14.068Z,100.00
2019-04-07T21:25:46.836Z,100.00
2019-04-07T21:28:20.421Z,100.00
2019-04-07T21:30:51.601Z,100.00
2019-04-07T21:33:23.613Z,100.00
2019-04-07T21:36:10.456Z,100.00
2019-04-07T21:38:43.278Z,100.00
2019-04-07T21:41:30.717Z,100.00
2019-04-07T21:44:03.008Z,100.00
2019-04-07T21:46:44.023Z,100.00
2019-04-07T21:49:17.826Z,100.00
2019-04-07T21:51:48.209Z,100.00
2019-04-07T21:54:22.640Z,100.00
2019-04-07T21:56:53.989Z,100.00
2019-04-07T21:59:28.471Z,100.00
2019-04-07T22:02:15.856Z,100.00
2019-04-07T22:04:54.062Z,100.00
2019-04-07T22:07:23.964Z,100.00
2019-04-07T22:09:55.126Z,100.00
2019-04-07T22:12:28.691Z,100.00
2019-04-07T22:14:56.144Z,100.00
2019-04-07T22:17:25.749Z,100.00
2019-04-07T22:19:55.220Z,100.00
2019-04-07T22:22:26.594Z,100.00
2019-04-07T22:24:56.017Z,100.00
2019-04-07T22:27:27.567Z,100.00
2019-04-07T22:29:59.779Z,100.00
2019-04-07T22:32:29.165Z,100.00
2019-04-07T22:35:02.615Z,100.00
2019-04-07T22:37:30.256Z,100.00
2019-04-07T22:40:02.066Z,100.00
2019-04-07T22:42:31.030Z,100.00
2019-04-07T22:45:00.540Z,100.00
2019-04-07T22:47:30.036Z,100.00
2019-04-07T22:50:02.526Z,100.00
2019-04-07T22:52:30.794Z,100.00
2019-04-07T22:55:03.621Z,100.00
2019-04-07T22:57:31.554Z,100.00
2019-04-07T23:00:01.068Z,100.00
2019-04-07T23:02:30.589Z,100.00
2019-04-07T23:05:00.834Z,100.00
2019-04-07T23:07:30.365Z,100.00
2019-04-07T23:10:00.467Z,100.00
2019-04-07T23:12:29.948Z,100.00
2019-04-07T23:14:59.460Z,100.00
2019-04-07T23:17:28.953Z,100.00
2019-04-07T23:19:58.864Z,100.00
2019-04-07T23:22:28.438Z,100.00
2019-04-07T23:24:57.956Z,100.00
2019-04-07T23:27:27.668Z,100.00
2019-04-07T23:29:57.211Z,100.00
2019-04-07T23:32:27.482Z,100.00
2019-04-07T23:34:57.650Z,100.00
2019-04-07T23:37:27.123Z,100.00
2019-04-07T23:39:56.645Z,100.00
2019-04-07T23:42:26.386Z,100.00
2019-04-07T23:44:56.029Z,100.00
2019-04-07T23:47:25.848Z,100.00
2019-04-07T23:49:55.362Z,100.00
2019-04-07T23:52:25.157Z,100.00
2019-04-07T23:54:54.644Z,100.00
2019-04-07T23:57:24.207Z,100.00
2019-04-07T23:59:54.104Z,100.00
